TimeCST,TemperatureF,Dew PointF,Humidity,Sea Level PressureIn,VisibilityMPH,Wind Direction,Wind SpeedMPH,Gust SpeedMPH,PrecipitationIn,Events,Conditions,WindDirDegrees,DateUTC
12:58 AM,46.2,27.9,49,30.21,10.0,South,5.8,-,N/A,,Overcast,190,2013-12-01 06:58:00
1:58 AM,46.2,28.2,50,30.22,10.0,South,6.9,-,N/A,,Overcast,190,2013-12-01 07:58:00
2:58 AM,47.3,28.6,48,30.20,10.0,SSW,5.8,-,N/A,,Overcast,200,2013-12-01 08:58:00
3:58 AM,47.7,29.5,49,30.18,10.0,SSW,8.1,-,N/A,,Overcast,210,2013-12-01 09:58:00
4:58 AM,47.8,29.7,49,30.17,10.0,South,9.2,-,N/A,,Overcast,190,2013-12-01 10:58:00
5:58 AM,47.8,29.7,49,30.18,10.0,SSW,8.1,-,N/A,,Overcast,200,2013-12-01 11:58:00
6:58 AM,48.0,29.7,49,30.18,10.0,SSW,8.1,-,N/A,,Overcast,200,2013-12-01 12:58:00
7:58 AM,48.4,30.0,49,30.18,10.0,SSW,8.1,-,N/A,,Overcast,200,2013-12-01 13:58:00
8:58 AM,48.9,30.2,48,30.18,10.0,SSW,6.9,-,N/A,,Overcast,210,2013-12-01 14:58:00
9:58 AM,49.6,30.6,48,30.17,10.0,SSW,5.8,-,N/A,,Overcast,200,2013-12-01 15:58:00
10:58 AM,52.3,32.0,46,30.15,10.0,SSW,6.9,-,N/A,,Overcast,200,2013-12-01 16:58:00
11:58 AM,53.4,33.8,47,30.12,10.0,SSW,5.8,-,N/A,,Overcast,210,2013-12-01 17:58:00
12:58 PM,53.8,34.0,47,30.08,10.0,SSW,4.6,-,N/A,,Overcast,200,2013-12-01 18:58:00
1:58 PM,54.7,35.2,48,30.06,10.0,South,3.5,-,N/A,,Overcast,190,2013-12-01 19:58:00
2:58 PM,54.5,35.4,49,30.05,10.0,South,4.6,-,N/A,,Overcast,180,2013-12-01 20:58:00
3:58 PM,54.0,35.2,49,30.03,10.0,SSW,4.6,-,N/A,,Overcast,200,2013-12-01 21:58:00
4:58 PM,51.8,36.0,55,30.02,10.0,South,2.3,-,N/A,,Overcast,180,2013-12-01 22:58:00
5:58 PM,51.1,36.7,58,30.02,10.0,South,2.3,-,N/A,,Overcast,170,2013-12-01 23:58:00
6:58 PM,50.4,36.7,59,30.01,10.0,SSE,3.5,-,N/A,,Overcast,150,2013-12-02 00:58:00
7:58 PM,49.8,37.0,61,30.00,10.0,ESE,1.2,-,N/A,,Overcast,120,2013-12-02 01:58:00
8:58 PM,49.3,37.8,65,29.99,10.0,SE,2.3,-,N/A,,Overcast,130,2013-12-02 02:58:00
9:58 PM,48.7,37.8,66,29.98,10.0,East,2.3,-,N/A,,Overcast,100,2013-12-02 03:58:00
10:58 PM,48.6,37.8,66,29.96,10.0,East,1.2,-,N/A,,Overcast,100,2013-12-02 04:58:00
11:58 PM,48.9,38.7,68,29.95,10.0,South,3.5,-,N/A,,Overcast,180,2013-12-02 05:58:00